createdAt,value
2018-05-04T00:01:26.858Z,84.50
2018-05-04T00:03:54.896Z,84.82
2018-05-04T00:06:23.648Z,85.07
2018-05-04T00:08:51.741Z,79.95
2018-05-04T00:11:19.645Z,84.95
2018-05-04T00:13:47.562Z,82.97
2018-05-04T00:16:15.528Z,85.20
2018-05-04T00:18:43.492Z,84.07
2018-05-04T00:21:11.461Z,85.20
2018-05-04T00:23:39.391Z,86.50
2018-05-04T00:26:07.393Z,84.28
2018-05-04T00:28:35.465Z,87.20
2018-05-04T00:31:03.445Z,83.28
2018-05-04T00:33:31.297Z,86.95
2018-05-04T00:35:59.266Z,83.97
2018-05-04T00:38:27.141Z,88.87
2018-05-04T00:40:55.058Z,82.72
2018-05-04T00:43:23.071Z,85.62
2018-05-04T00:45:50.991Z,83.05
2018-05-04T00:48:18.913Z,82.97
2018-05-04T00:50:46.881Z,83.43
2018-05-04T00:53:14.849Z,81.72
2018-05-04T00:55:42.912Z,81.78
2018-05-04T00:58:10.884Z,80.55
2018-05-04T01:00:38.854Z,81.53
2018-05-04T01:03:06.830Z,80.05
2018-05-04T01:05:34.786Z,82.88
2018-05-04T01:08:02.778Z,82.00
2018-05-04T01:10:30.724Z,82.03
2018-05-04T01:12:58.672Z,80.30
2018-05-04T01:15:26.691Z,82.60
2018-05-04T01:17:55.452Z,83.32
2018-05-04T01:20:23.416Z,81.60
2018-05-04T01:22:51.251Z,82.37
2018-05-04T01:25:19.261Z,80.45
2018-05-04T01:27:47.401Z,82.12
2018-05-04T01:30:15.477Z,81.15
2018-05-04T01:32:43.359Z,81.07
2018-05-04T01:35:11.227Z,80.97
2018-05-04T01:37:39.218Z,81.22
2018-05-04T01:40:07.171Z,81.78
2018-05-04T01:42:34.998Z,82.62
2018-05-04T01:45:02.986Z,82.45
2018-05-04T01:47:30.997Z,83.15
2018-05-04T01:49:59.757Z,82.00
2018-05-04T01:52:27.728Z,84.30
2018-05-04T01:54:55.726Z,81.93
2018-05-04T01:57:24.393Z,82.82
2018-05-04T01:59:52.506Z,80.50
2018-05-04T02:02:20.423Z,82.93
2018-05-04T02:04:48.524Z,81.25
2018-05-04T02:07:17.135Z,81.47
2018-05-04T02:09:45.142Z,82.28
2018-05-04T02:12:13.119Z,82.30
2018-05-04T02:14:41.074Z,83.70
2018-05-04T02:17:09.049Z,82.88
2018-05-04T02:19:36.915Z,83.95
2018-05-04T02:22:04.881Z,81.07
2018-05-04T02:24:32.821Z,86.35
2018-05-04T02:27:00.818Z,79.40
2018-05-04T02:29:28.687Z,83.72
2018-05-04T02:31:56.628Z,79.53
2018-05-04T02:34:24.724Z,81.07
2018-05-04T02:36:52.692Z,80.75
2018-05-04T02:39:20.765Z,82.62
2018-05-04T02:41:48.637Z,82.18
2018-05-04T02:44:16.702Z,80.35
2018-05-04T02:46:44.771Z,81.93
2018-05-04T02:49:12.723Z,79.12
2018-05-04T02:51:40.612Z,80.68
2018-05-04T02:54:08.478Z,81.72
2018-05-04T02:56:36.547Z,82.18
2018-05-04T02:59:04.529Z,81.63
2018-05-04T03:01:32.493Z,82.07
2018-05-04T03:04:00.348Z,81.20
2018-05-04T03:06:28.212Z,84.93
2018-05-04T03:08:56.183Z,81.78
2018-05-04T03:11:24.150Z,82.40
2018-05-04T03:13:52.019Z,82.88
2018-05-04T03:16:19.885Z,83.03
2018-05-04T03:18:47.815Z,82.32
2018-05-04T03:21:15.783Z,84.70
2018-05-04T03:23:43.790Z,84.55
2018-05-04T03:26:11.755Z,84.95
2018-05-04T03:28:39.597Z,84.80
2018-05-04T03:31:07.548Z,84.25
2018-05-04T03:33:36.581Z,86.07
2018-05-04T03:36:04.451Z,84.22
2018-05-04T03:38:32.460Z,84.53
2018-05-04T03:41:01.103Z,82.95
2018-05-04T03:43:29.177Z,87.72
2018-05-04T03:45:57.137Z,85.45
2018-05-04T03:48:25.016Z,86.53
2018-05-04T03:50:52.984Z,85.25
2018-05-04T03:53:20.952Z,85.57
2018-05-04T03:55:48.914Z,85.87
2018-05-04T03:58:28.742Z,84.35
2018-05-04T04:01:08.471Z,85.22
2018-05-04T04:03:48.254Z,85.65
2018-05-04T04:06:16.224Z,84.65
2018-05-04T04:08:44.089Z,85.65
2018-05-04T04:11:12.054Z,85.38
2018-05-04T04:13:40.025Z,85.90
2018-05-04T04:16:08.062Z,84.35
2018-05-04T04:18:36.063Z,85.03
2018-05-04T04:21:05.463Z,83.43
2018-05-04T04:23:33.441Z,85.43
2018-05-04T04:26:01.339Z,85.80
2018-05-04T04:28:29.986Z,86.05
2018-05-04T04:30:58.667Z,86.53
2018-05-04T04:33:26.542Z,87.47
2018-05-04T04:35:56.142Z,82.03
2018-05-04T04:38:24.016Z,87.35
2018-05-04T04:40:52.840Z,97.37
2018-05-04T04:43:20.864Z,85.65
2018-05-04T04:45:48.748Z,88.65
2018-05-04T04:48:16.706Z,86.95
2018-05-04T04:50:46.100Z,85.10
2018-05-04T04:53:13.927Z,84.62
2018-05-04T04:55:41.833Z,82.45
2018-05-04T04:58:09.701Z,83.85
2018-05-04T05:00:37.670Z,92.22
2018-05-04T05:03:05.647Z,85.65
2018-05-04T05:05:33.708Z,88.03
2018-05-04T05:08:01.786Z,86.35
2018-05-04T05:10:29.746Z,86.63
2018-05-04T05:12:57.613Z,83.47
2018-05-04T05:15:25.581Z,84.93
2018-05-04T05:17:53.351Z,84.50
2018-05-04T05:20:21.312Z,84.87
2018-05-04T05:22:49.291Z,84.45
2018-05-04T05:25:17.158Z,92.93
2018-05-04T05:27:45.117Z,85.32
2018-05-04T05:30:12.937Z,94.82
2018-05-04T05:32:40.852Z,86.25
2018-05-04T05:35:08.714Z,84.15
2018-05-04T05:37:36.688Z,88.90
2018-05-04T05:40:04.551Z,85.05
2018-05-04T05:42:32.415Z,87.07
2018-05-04T05:45:00.285Z,86.03
2018-05-04T05:47:28.148Z,90.32
2018-05-04T05:49:56.016Z,83.85
2018-05-04T05:52:23.880Z,87.35
2018-05-04T05:54:51.745Z,86.70
2018-05-04T05:57:19.682Z,85.80
2018-05-04T05:59:47.578Z,86.57
2018-05-04T06:02:15.451Z,88.70
2018-05-04T06:04:43.517Z,86.47
2018-05-04T06:07:11.499Z,87.00
2018-05-04T06:09:39.460Z,85.32
2018-05-04T06:12:07.422Z,83.15
2018-05-04T06:14:35.289Z,87.32
2018-05-04T06:17:03.110Z,96.90
2018-05-04T06:19:31.021Z,89.95
2018-05-04T06:21:58.887Z,82.90
2018-05-04T06:24:26.958Z,84.95
2018-05-04T06:26:55.424Z,82.80
2018-05-04T06:29:23.409Z,85.00
2018-05-04T06:31:51.359Z,83.00
2018-05-04T06:34:19.240Z,84.50
2018-05-04T06:36:47.365Z,80.07
2018-05-04T06:39:15.443Z,83.60
2018-05-04T06:41:43.436Z,88.65
2018-05-04T06:44:11.411Z,82.95
2018-05-04T06:46:39.626Z,86.72
2018-05-04T06:49:08.388Z,87.35
2018-05-04T06:51:36.353Z,85.95
2018-05-04T06:54:04.296Z,84.07
2018-05-04T06:56:32.408Z,89.18
2018-05-04T06:59:00.389Z,86.18
2018-05-04T07:01:29.166Z,86.55
2018-05-04T07:03:57.092Z,86.43
2018-05-04T07:06:25.083Z,87.03
2018-05-04T07:08:53.037Z,84.05
2018-05-04T07:11:21.128Z,84.22
2018-05-04T07:13:49.199Z,83.35
2018-05-04T07:16:17.165Z,83.35
2018-05-04T07:18:45.135Z,83.65
2018-05-04T07:21:13.105Z,85.95
2018-05-04T07:23:41.173Z,81.50
2018-05-04T07:26:09.144Z,81.57
2018-05-04T07:28:37.220Z,89.37
2018-05-04T07:31:05.189Z,83.87
2018-05-04T07:33:33.865Z,85.85
2018-05-04T07:36:01.707Z,82.80
2018-05-04T07:38:29.710Z,84.72
2018-05-04T07:40:57.775Z,84.28
2018-05-04T07:43:25.846Z,83.43
2018-05-04T07:45:53.749Z,84.37
2018-05-04T07:48:22.396Z,83.80
2018-05-04T07:50:50.264Z,82.65
2018-05-04T07:53:18.129Z,81.90
2018-05-04T07:55:46.092Z,82.93
2018-05-04T07:58:14.070Z,78.03
2018-05-04T08:00:41.928Z,82.22
2018-05-04T08:03:09.796Z,82.22
2018-05-04T08:05:37.674Z,83.53
2018-05-04T08:08:05.671Z,81.85
2018-05-04T08:10:34.322Z,85.43
2018-05-04T08:13:02.472Z,80.97
2018-05-04T08:15:30.560Z,85.57
2018-05-04T08:17:58.403Z,83.15
2018-05-04T08:20:26.410Z,83.62
2018-05-04T08:22:54.358Z,80.68
2018-05-04T08:25:22.302Z,86.07
2018-05-04T08:27:50.209Z,82.70
2018-05-04T08:30:18.181Z,81.10
2018-05-04T08:32:47.573Z,79.87
2018-05-04T08:35:15.644Z,82.60
2018-05-04T08:37:43.506Z,84.18
2018-05-04T08:40:11.374Z,80.97
2018-05-04T08:42:39.417Z,81.93
2018-05-04T08:45:07.410Z,79.57
2018-05-04T08:47:35.272Z,86.72
2018-05-04T08:50:03.142Z,82.25
2018-05-04T08:52:31.007Z,86.75
2018-05-04T08:54:58.984Z,82.90
2018-05-04T08:57:27.110Z,87.05
2018-05-04T08:59:55.020Z,84.32
2018-05-04T09:02:23.056Z,83.65
2018-05-04T09:04:51.064Z,82.68
2018-05-04T09:07:19.756Z,83.60
2018-05-04T09:09:47.707Z,81.78
2018-05-04T09:12:15.678Z,82.65
2018-05-04T09:14:43.568Z,82.55
2018-05-04T09:17:12.331Z,82.15
2018-05-04T09:19:40.300Z,82.35
2018-05-04T09:22:08.299Z,84.15
2018-05-04T09:24:37.183Z,82.50
2018-05-04T09:27:06.076Z,83.62
2018-05-04T09:29:34.832Z,84.22
2018-05-04T09:32:02.674Z,81.37
2018-05-04T09:34:30.704Z,83.60
2018-05-04T09:36:59.608Z,80.68
2018-05-04T09:39:27.528Z,81.47
2018-05-04T09:41:55.397Z,81.87
2018-05-04T09:44:23.417Z,82.82
2018-05-04T09:46:51.648Z,82.28
2018-05-04T09:49:19.626Z,84.45
2018-05-04T09:51:47.797Z,81.00
2018-05-04T09:54:15.748Z,80.78
2018-05-04T09:56:43.777Z,82.32
2018-05-04T09:59:11.915Z,85.00
2018-05-04T10:01:40.832Z,82.95
2018-05-04T10:04:09.007Z,81.47
2018-05-04T10:06:36.927Z,82.85
2018-05-04T10:09:04.956Z,82.85
2018-05-04T10:11:33.015Z,82.03
2018-05-04T10:14:01.038Z,83.05
2018-05-04T10:16:29.008Z,80.90
2018-05-04T10:18:57.177Z,83.28
2018-05-04T10:21:25.109Z,86.43
2018-05-04T10:23:53.114Z,80.87
2018-05-04T10:26:21.114Z,81.70
2018-05-04T10:28:49.869Z,81.68
2018-05-04T10:31:17.814Z,83.57
2018-05-04T10:33:45.706Z,81.00
2018-05-04T10:36:13.633Z,81.90
2018-05-04T10:38:41.768Z,82.90
2018-05-04T10:41:09.831Z,80.75
2018-05-04T10:43:38.502Z,82.85
2018-05-04T10:46:06.366Z,79.45
2018-05-04T10:48:34.340Z,81.53
2018-05-04T10:51:02.308Z,78.85
2018-05-04T10:53:30.270Z,84.45
2018-05-04T10:55:58.238Z,79.53
2018-05-04T10:58:26.217Z,81.15
2018-05-04T11:00:54.182Z,81.15
2018-05-04T11:03:22.050Z,85.22
2018-05-04T11:05:51.176Z,79.75
2018-05-04T11:08:19.821Z,80.87
2018-05-04T11:10:47.688Z,79.72
2018-05-04T11:13:15.555Z,80.93
2018-05-04T11:15:43.695Z,82.75
2018-05-04T11:18:11.591Z,81.05
2018-05-04T11:20:39.455Z,78.25
2018-05-04T11:23:07.288Z,83.05
2018-05-04T11:25:35.293Z,81.28
2018-05-04T11:28:03.268Z,83.62
2018-05-04T11:30:31.127Z,85.12
2018-05-04T11:32:58.992Z,81.50
2018-05-04T11:35:26.856Z,80.05
2018-05-04T11:37:54.724Z,84.25
2018-05-04T11:40:22.693Z,83.95
2018-05-04T11:42:50.559Z,82.75
2018-05-04T11:45:19.962Z,84.18
2018-05-04T11:47:47.906Z,82.68
2018-05-04T11:50:16.473Z,83.53
2018-05-04T11:52:44.383Z,78.55
2018-05-04T11:55:12.318Z,83.90
2018-05-04T11:57:40.228Z,81.37
2018-05-04T12:00:08.078Z,80.28
2018-05-04T12:02:36.055Z,82.18
2018-05-04T12:05:03.912Z,81.87
2018-05-04T12:07:31.890Z,81.65
2018-05-04T12:10:00.567Z,82.10
2018-05-04T12:12:28.643Z,82.90
2018-05-04T12:14:56.508Z,82.22
2018-05-04T12:17:24.372Z,82.07
2018-05-04T12:19:52.238Z,82.90
2018-05-04T12:22:20.204Z,79.85
2018-05-04T12:24:48.078Z,83.95
2018-05-04T12:27:15.940Z,81.93
2018-05-04T12:29:43.806Z,84.78
2018-05-04T12:32:11.669Z,80.53
2018-05-04T12:34:40.356Z,83.97
2018-05-04T12:37:08.286Z,79.22
2018-05-04T12:39:36.195Z,82.47
2018-05-04T12:42:05.590Z,80.97
2018-05-04T12:44:33.456Z,82.57
2018-05-04T12:47:01.419Z,80.20
2018-05-04T12:49:29.290Z,82.93
2018-05-04T12:51:57.160Z,79.95
2018-05-04T12:54:25.024Z,81.43
2018-05-04T12:56:52.891Z,82.68
2018-05-04T12:59:20.755Z,81.47
2018-05-04T13:01:48.620Z,81.18
2018-05-04T13:04:16.593Z,81.78
2018-05-04T13:06:44.459Z,79.37
2018-05-04T13:09:12.273Z,79.80
2018-05-04T13:11:40.393Z,81.55
2018-05-04T13:14:08.260Z,80.60
2018-05-04T13:16:36.127Z,85.53
2018-05-04T13:19:03.961Z,82.82
2018-05-04T13:21:31.857Z,84.70
2018-05-04T13:23:59.723Z,84.53
2018-05-04T13:26:27.594Z,82.20
2018-05-04T13:28:55.557Z,82.15
2018-05-04T13:31:23.424Z,85.82
2018-05-04T13:33:51.290Z,79.57
2018-05-04T13:36:19.258Z,81.50
2018-05-04T13:38:47.236Z,79.97
2018-05-04T13:41:15.261Z,82.15
2018-05-04T13:43:43.131Z,80.82
2018-05-04T13:46:11.030Z,81.03
2018-05-04T13:48:38.898Z,82.28
2018-05-04T13:51:06.771Z,80.05
2018-05-04T13:53:34.631Z,81.47
2018-05-04T13:56:02.499Z,79.93
2018-05-04T13:58:30.360Z,84.32
2018-05-04T14:00:58.229Z,81.28
2018-05-04T14:03:26.091Z,82.50
2018-05-04T14:05:54.023Z,79.62
2018-05-04T14:08:22.703Z,82.03
2018-05-04T14:10:50.613Z,79.97
2018-05-04T14:13:18.581Z,81.35
2018-05-04T14:15:46.446Z,81.63
2018-05-04T14:18:14.419Z,79.93
2018-05-04T14:20:42.282Z,78.50
2018-05-04T14:23:10.151Z,84.25
2018-05-04T14:25:38.013Z,84.57
2018-05-04T14:28:06.084Z,83.05
2018-05-04T14:30:34.162Z,84.00
2018-05-04T14:33:02.231Z,81.85
2018-05-04T14:35:30.096Z,85.07
2018-05-04T14:37:57.961Z,83.05
2018-05-04T14:40:25.928Z,81.37
2018-05-04T14:42:53.942Z,84.72
2018-05-04T14:45:21.729Z,82.30
2018-05-04T14:47:49.635Z,82.78
2018-05-04T14:50:17.583Z,83.97
2018-05-04T14:52:45.565Z,81.37
2018-05-04T14:55:13.433Z,83.05
2018-05-04T14:57:41.294Z,81.07
2018-05-04T15:00:09.162Z,81.32
2018-05-04T15:02:37.028Z,82.70
2018-05-04T15:05:05.000Z,83.15
2018-05-04T15:07:32.863Z,85.15
2018-05-04T15:10:00.707Z,83.72
2018-05-04T15:12:28.595Z,82.93
2018-05-04T15:14:56.569Z,80.70
2018-05-04T15:17:24.429Z,83.25
2018-05-04T15:19:52.272Z,81.43
2018-05-04T15:22:20.161Z,83.35
2018-05-04T15:24:48.334Z,89.90
2018-05-04T15:27:16.202Z,88.57
2018-05-04T15:29:44.067Z,84.30
2018-05-04T15:32:11.934Z,82.57
2018-05-04T15:34:39.902Z,80.60
2018-05-04T15:37:07.720Z,81.12
2018-05-04T15:39:35.533Z,81.57
2018-05-04T15:42:03.499Z,82.93
2018-05-04T15:44:32.199Z,85.75
2018-05-04T15:47:00.874Z,82.37
2018-05-04T15:49:28.841Z,83.97
2018-05-04T15:52:02.442Z,82.72
2018-05-04T15:54:30.308Z,83.65
2018-05-04T15:56:58.175Z,81.68
2018-05-04T15:59:26.038Z,81.65
2018-05-04T16:01:53.911Z,85.15
2018-05-04T16:04:21.737Z,80.30
2018-05-04T16:06:49.637Z,82.78
2018-05-04T16:09:17.463Z,86.05
2018-05-04T16:11:45.369Z,82.57
2018-05-04T16:14:13.236Z,81.70
2018-05-04T16:16:41.106Z,84.32
2018-05-04T16:19:08.972Z,86.28
2018-05-04T16:21:36.832Z,86.30
2018-05-04T16:24:04.800Z,84.82
2018-05-04T16:26:32.670Z,87.22
2018-05-04T16:29:00.648Z,83.65
2018-05-04T16:31:28.518Z,84.45
2018-05-04T16:33:56.370Z,83.87
2018-05-04T16:36:24.247Z,80.90
2018-05-04T16:38:52.201Z,81.75
2018-05-04T16:41:20.170Z,84.15
2018-05-04T16:43:48.005Z,79.65
2018-05-04T16:46:21.500Z,81.65
2018-05-04T16:48:54.896Z,83.10
2018-05-04T16:51:22.794Z,83.62
2018-05-04T16:53:50.766Z,80.97
2018-05-04T16:56:18.733Z,83.43
2018-05-04T16:58:46.599Z,83.90
2018-05-04T17:01:14.465Z,84.97
2018-05-04T17:03:42.445Z,82.22
2018-05-04T17:06:10.410Z,85.05
2018-05-04T17:08:38.377Z,86.60
2018-05-04T17:11:06.242Z,80.40
2018-05-04T17:13:34.211Z,87.53
2018-05-04T17:16:02.178Z,82.35
2018-05-04T17:18:30.142Z,85.05
2018-05-04T17:20:58.332Z,81.78
2018-05-04T17:23:26.252Z,81.93
2018-05-04T17:25:54.254Z,78.95
2018-05-04T17:28:22.189Z,80.82
2018-05-04T17:30:50.190Z,80.45
2018-05-04T17:33:18.160Z,81.85
2018-05-04T17:35:46.086Z,81.60
2018-05-04T17:38:14.095Z,79.12
2018-05-04T17:40:41.893Z,88.78
2018-05-04T17:43:10.450Z,84.70
2018-05-04T17:45:38.309Z,83.47
2018-05-04T17:48:06.276Z,80.78
2018-05-04T17:50:34.142Z,85.68
2018-05-04T17:53:02.113Z,84.03
2018-05-04T17:55:29.979Z,88.35
2018-05-04T17:57:57.853Z,83.72
2018-05-04T18:00:25.772Z,81.43
2018-05-04T18:02:53.637Z,78.28
2018-05-04T18:05:21.546Z,80.10
2018-05-04T18:07:49.408Z,82.28
2018-05-04T18:10:17.427Z,81.28
2018-05-04T18:12:45.334Z,84.22
2018-05-04T18:15:13.309Z,84.37
2018-05-04T18:17:41.189Z,84.97
2018-05-04T18:20:09.981Z,84.37
2018-05-04T18:22:37.911Z,86.95
2018-05-04T18:25:05.804Z,84.57
2018-05-04T18:27:33.672Z,93.70
2018-05-04T18:30:01.494Z,95.05
2018-05-04T18:32:29.402Z,97.95
2018-05-04T18:34:57.268Z,103.20
2018-05-04T18:37:25.134Z,96.50
2018-05-04T18:39:53.003Z,101.10
2018-05-04T18:42:20.878Z,106.13
2018-05-04T18:44:48.735Z,103.40
2018-05-04T18:47:16.702Z,100.32
2018-05-04T18:49:44.567Z,103.22
2018-05-04T18:52:12.438Z,114.35
2018-05-04T18:54:40.407Z,109.20
2018-05-04T18:57:08.272Z,102.43
2018-05-04T18:59:36.952Z,109.07
2018-05-04T19:02:04.922Z,102.22
2018-05-04T19:04:32.878Z,99.90
2018-05-04T19:07:00.861Z,96.15
2018-05-04T19:09:28.831Z,94.50
2018-05-04T19:11:56.661Z,93.37
2018-05-04T19:14:24.561Z,97.82
2018-05-04T19:16:52.428Z,100.10
2018-05-04T19:19:20.394Z,93.62
2018-05-04T19:21:48.262Z,91.75
2018-05-04T19:24:16.127Z,105.33
2018-05-04T19:26:43.992Z,91.57
2018-05-04T19:29:13.240Z,94.30
2018-05-04T19:31:41.263Z,94.10
2018-05-04T19:34:09.722Z,93.45
2018-05-04T19:36:37.577Z,98.28
2018-05-04T19:39:05.677Z,93.20
2018-05-04T19:41:33.645Z,96.43
2018-05-04T19:44:01.513Z,94.68
2018-05-04T19:46:29.588Z,91.28
2018-05-04T19:48:57.420Z,88.82
2018-05-04T19:51:25.419Z,92.45
2018-05-04T19:53:53.387Z,92.05
2018-05-04T19:56:21.252Z,97.32
2018-05-04T19:58:49.123Z,97.20
2018-05-04T20:01:16.987Z,99.72
2018-05-04T20:03:44.951Z,89.22
2018-05-04T20:06:12.820Z,96.85
2018-05-04T20:08:40.891Z,99.05
2018-05-04T20:11:08.755Z,96.70
2018-05-04T20:13:36.728Z,97.47
2018-05-04T20:16:05.920Z,98.97
2018-05-04T20:18:35.119Z,99.72
2018-05-04T20:21:04.316Z,97.40
2018-05-04T20:23:33.481Z,99.20
2018-05-04T20:26:02.710Z,95.07
2018-05-04T20:28:31.910Z,101.55
2018-05-04T20:31:01.084Z,99.25
2018-05-04T20:33:30.302Z,100.12
2018-05-04T20:35:59.501Z,101.82
2018-05-04T20:38:28.701Z,101.75
2018-05-04T20:40:57.863Z,99.93
2018-05-04T20:43:26.992Z,97.07
2018-05-04T20:45:56.185Z,97.50
2018-05-04T20:48:25.387Z,100.95
2018-05-04T20:50:54.580Z,97.93
2018-05-04T20:55:59.119Z,97.60
2018-05-04T20:58:28.284Z,96.45
2018-05-04T21:00:57.514Z,93.67
2018-05-04T21:03:26.713Z,97.43
2018-05-04T21:05:56.007Z,95.95
2018-05-04T21:08:25.189Z,92.30
2018-05-04T21:10:54.407Z,93.25
2018-05-04T21:13:23.913Z,89.65
2018-05-04T21:15:53.109Z,85.18
2018-05-04T21:18:22.308Z,86.40
2018-05-04T21:20:51.507Z,93.30
2018-05-04T21:23:20.712Z,86.60
2018-05-04T21:25:49.974Z,87.18
2018-05-04T21:28:19.201Z,84.93
2018-05-04T21:30:48.394Z,85.32
2018-05-04T21:33:17.697Z,93.57
2018-05-04T21:35:46.993Z,99.47
2018-05-04T21:38:16.191Z,89.97
2018-05-04T21:59:18.643Z,80.32
2018-05-04T22:01:46.863Z,81.05
2018-05-04T22:04:14.833Z,81.50
2018-05-04T22:06:42.799Z,93.25
2018-05-04T22:09:10.667Z,82.95
2018-05-04T22:11:38.634Z,84.65
2018-05-04T22:14:06.501Z,83.87
2018-05-04T22:16:34.568Z,84.20
2018-05-04T22:19:02.541Z,82.82
2018-05-04T22:21:30.512Z,82.40
2018-05-04T22:23:58.481Z,81.43
2018-05-04T22:26:26.399Z,83.35
2018-05-04T22:28:54.580Z,82.55
2018-05-04T22:31:22.479Z,81.65
2018-05-04T22:33:50.358Z,84.00
2018-05-04T22:36:18.422Z,80.30
2018-05-04T22:38:46.387Z,90.47
2018-05-04T22:41:14.256Z,87.78
2018-05-04T22:43:42.224Z,84.70
2018-05-04T22:46:10.200Z,82.20
2018-05-04T22:48:38.157Z,84.97
2018-05-04T22:51:06.125Z,84.25
2018-05-04T22:53:34.104Z,82.45
2018-05-04T22:56:02.076Z,82.97
2018-05-04T22:58:29.931Z,82.03
2018-05-04T23:00:57.901Z,82.65
2018-05-04T23:03:25.972Z,84.35
2018-05-04T23:05:53.806Z,79.75
2018-05-04T23:08:21.909Z,80.72
2018-05-04T23:10:49.873Z,81.75
2018-05-04T23:13:17.757Z,85.57
2018-05-04T23:15:45.573Z,83.65
2018-05-04T23:18:14.293Z,81.37
2018-05-04T23:20:42.159Z,83.05
2018-05-04T23:23:10.126Z,81.57
2018-05-04T23:25:37.987Z,85.57
2018-05-04T23:28:05.956Z,81.28
2018-05-04T23:30:33.912Z,82.75
2018-05-04T23:33:01.862Z,82.18
2018-05-04T23:35:29.766Z,81.75
2018-05-04T23:37:57.636Z,80.50
2018-05-04T23:40:25.617Z,79.90
2018-05-04T23:42:53.471Z,80.55
2018-05-04T23:45:21.330Z,80.75
2018-05-04T23:47:49.207Z,92.68
2018-05-04T23:50:18.706Z,84.28
2018-05-04T23:52:46.571Z,82.10
2018-05-04T23:55:14.435Z,83.75
2018-05-04T23:57:42.512Z,81.57
